Time;durP1;ratioP1;P1;durP2;ratioP2;P2;SDS_P1;SDS_P2;PMS_P1;PMS_P2;Temp;Humidity;BMP_temperature;BMP_pressure;BME280_temperature;BME280_humidity;BME280_pressure;Samples;Min_cycle;Max_cycle;Signal;HPM_P1;HPM_P2
2021/12/26 00:01:51;;;;;;;4.40;2.50;;;2.50;99.90;;;2.03;78.10;100231.84;5186689;28;20060;-72
2021/12/26 00:04:25;;;;;;;4.47;2.50;;;2.50;99.90;;;2.04;78.86;100226.81;5182700;28;20057;-72
2021/12/26 00:06:57;;;;;;;5.97;2.45;;;2.60;99.90;;;2.11;78.80;100228.06;5183366;28;20053;-72
2021/12/26 00:09:29;;;;;;;3.70;2.15;;;2.60;99.90;;;2.13;78.29;100224.75;5182939;28;20054;-72
2021/12/26 00:12:01;;;;;;;4.13;2.85;;;2.60;99.90;;;2.12;78.14;100219.53;5183040;28;20054;-72
2021/12/26 00:14:33;;;;;;;6.15;2.25;;;2.60;99.90;;;2.03;78.39;100225.03;5182547;28;20042;-72
2021/12/26 00:17:05;;;;;;;3.30;2.20;;;2.60;99.90;;;1.98;78.69;100220.41;5201614;22;20053;-83
2021/12/26 00:19:38;;;;;;;4.88;2.20;;;2.50;99.90;;;1.96;78.56;100219.44;5230039;22;20056;-68
2021/12/26 00:22:10;;;;;;;4.70;2.72;;;2.50;99.90;;;1.94;78.69;100214.19;5227330;28;20045;-65
2021/12/26 00:24:42;;;;;;;5.57;2.63;;;2.50;99.90;;;1.90;78.91;100210.56;5227224;28;20059;-68
2021/12/26 00:27:16;;;;;;;4.55;2.38;;;2.50;99.90;;;1.94;79.40;100208.16;5227058;28;20057;-68
2021/12/26 00:29:48;;;;;;;4.40;2.13;;;2.50;99.90;;;2.00;79.72;100208.53;5227233;28;20386;-68
2021/12/26 00:32:20;;;;;;;4.40;2.30;;;2.50;99.90;;;2.03;79.36;100207.03;5226827;28;20057;-68
2021/12/26 00:34:54;;;;;;;4.28;2.42;;;2.50;99.90;;;2.06;79.84;100204.63;5226490;28;20041;-68
2021/12/26 00:37:26;;;;;;;5.00;2.38;;;2.60;99.90;;;2.13;79.58;100205.88;5226706;28;20053;-68
2021/12/26 00:39:58;;;;;;;4.60;2.30;;;2.60;99.90;;;2.17;79.38;100208.72;5226951;28;20446;-68
2021/12/26 00:42:30;;;;;;;4.03;1.90;;;2.70;99.90;;;2.15;79.00;100202.63;5226754;28;20041;-68
2021/12/26 00:45:02;;;;;;;3.45;1.98;;;2.70;99.90;;;2.04;78.56;100205.34;5226448;28;20045;-67
2021/12/26 00:47:35;;;;;;;3.00;1.90;;;2.60;99.90;;;2.05;79.29;100207.13;5227094;28;20049;-68
2021/12/26 00:50:12;;;;;;;5.30;2.33;;;2.60;99.90;;;2.08;79.71;100202.13;5226441;28;20055;-68
2021/12/26 00:52:44;;;;;;;5.00;2.67;;;2.60;99.90;;;2.13;79.41;100193.91;5226333;28;20049;-68
2021/12/26 00:55:18;;;;;;;4.72;2.33;;;2.60;99.90;;;2.13;78.86;100188.75;5226433;28;20052;-68
2021/12/26 00:57:51;;;;;;;4.97;2.83;;;2.70;99.90;;;2.21;79.11;100190.88;5226561;28;20071;-65
2021/12/26 01:00:28;;;;;;;5.45;2.40;;;2.70;99.90;;;2.19;78.48;100198.53;5226528;28;20379;-68
2021/12/26 01:03:03;;;;;;;4.47;2.13;;;2.70;99.90;;;2.17;79.08;100189.84;5226158;28;20053;-68
2021/12/26 01:05:40;;;;;;;4.57;2.17;;;2.70;99.90;;;2.16;79.01;100193.22;5226476;28;20060;-69
2021/12/26 01:08:18;;;;;;;4.50;2.17;;;2.70;99.90;;;2.16;78.75;100193.22;5226444;28;20437;-69
2021/12/26 01:10:55;;;;;;;4.80;2.83;;;2.70;99.90;;;2.14;78.96;100189.66;5226048;28;20053;-69
2021/12/26 01:13:31;;;;;;;3.83;1.92;;;2.70;99.90;;;2.13;79.32;100187.88;5226458;28;20045;-67
2021/12/26 01:16:10;;;;;;;4.55;2.25;;;2.70;99.90;;;2.14;79.18;100185.38;5225930;28;20482;-67
2021/12/26 01:18:45;;;;;;;5.13;2.30;;;2.70;99.90;;;2.20;79.59;100195.16;5226030;28;20045;-68
2021/12/26 01:21:22;;;;;;;5.15;2.10;;;2.70;99.90;;;2.25;79.40;100198.88;5226281;28;20076;-65
2021/12/26 01:23:59;;;;;;;6.53;2.60;;;2.70;99.90;;;2.29;79.23;100197.41;5225927;28;20126;-69
2021/12/26 01:26:31;;;;;;;4.85;2.65;;;2.70;99.90;;;2.31;78.88;100204.38;5226233;28;20456;-69
2021/12/26 01:29:05;;;;;;;5.40;2.40;;;2.80;99.90;;;2.29;78.76;100194.81;5226172;28;20324;-69
2021/12/26 01:31:37;;;;;;;5.38;2.90;;;2.80;99.90;;;2.32;78.72;100197.56;5226204;28;20045;-69
2021/12/26 01:34:09;;;;;;;6.53;2.50;;;2.80;99.90;;;2.29;78.95;100200.84;5225596;28;20053;-69
2021/12/26 01:36:43;;;;;;;6.45;2.75;;;2.80;99.90;;;2.31;78.73;100203.50;5225982;28;20387;-68
2021/12/26 01:39:15;;;;;;;5.55;2.58;;;2.80;99.90;;;2.23;78.56;100197.91;5225825;28;20060;-68
2021/12/26 01:41:49;;;;;;;5.82;2.80;;;2.80;99.90;;;2.26;79.14;100192.06;5225785;28;20055;-68
2021/12/26 01:44:21;;;;;;;4.40;2.53;;;2.80;99.90;;;2.21;79.19;100202.06;5225733;28;20099;-68
2021/12/26 01:46:53;;;;;;;4.18;2.28;;;2.70;99.90;;;2.18;79.18;100201.91;5225375;28;20045;-69
2021/12/26 01:49:28;;;;;;;3.58;2.17;;;2.70;99.90;;;2.22;79.53;100201.28;5225548;28;20048;-68
2021/12/26 01:52:06;;;;;;;3.75;2.55;;;2.70;99.90;;;2.22;79.47;100203.88;5225727;28;20057;-68
2021/12/26 01:54:44;;;;;;;6.72;2.78;;;2.80;99.90;;;2.17;79.19;100200.13;5225142;28;20056;-68
2021/12/26 01:57:19;;;;;;;4.70;2.47;;;2.70;99.90;;;2.16;79.60;100193.22;5225805;28;20409;-68
2021/12/26 01:59:51;;;;;;;5.22;2.47;;;2.70;99.90;;;2.17;79.33;100200.13;5225514;28;20056;-68
2021/12/26 02:02:23;;;;;;;4.80;2.55;;;2.70;99.90;;;2.17;79.62;100195.00;5225077;28;20045;-69
2021/12/26 02:04:55;;;;;;;5.65;2.53;;;2.70;99.90;;;2.26;79.28;100199.78;5225487;28;20051;-69
2021/12/26 02:07:28;;;;;;;7.95;3.25;;;2.70;99.90;;;2.22;79.27;100198.72;5225097;28;20051;-68
2021/12/26 02:10:00;;;;;;;5.88;3.33;;;2.70;99.90;;;2.16;79.43;100195.78;5225502;28;20055;-68
2021/12/26 02:12:32;;;;;;;4.00;2.55;;;2.70;99.90;;;2.14;79.90;100193.09;5225164;28;20053;-68
2021/12/26 02:15:06;;;;;;;7.40;3.75;;;2.70;99.90;;;2.13;79.55;100191.34;5225330;28;20477;-68
2021/12/26 02:17:38;;;;;;;7.90;2.85;;;2.70;99.90;;;2.14;79.62;100187.97;5225402;28;20228;-67
2021/12/26 02:20:39;;;;;;;7.88;2.63;;;2.70;99.90;;;2.16;79.95;100188.97;5225252;28;20053;-68
2021/12/26 02:23:16;;;;;;;5.50;2.55;;;2.70;99.90;;;2.16;79.77;100175.22;5225065;28;20147;-68
2021/12/26 02:28:40;;;;;;;6.65;2.78;;;2.70;99.90;;;2.11;80.30;100179.19;5225159;28;20138;-68
2021/12/26 02:31:14;;;;;;;7.22;3.60;;;2.60;99.90;;;2.15;80.38;100178.56;5225212;28;20049;-68
2021/12/26 02:33:46;;;;;;;7.10;3.28;;;2.70;99.90;;;2.22;80.34;100185.88;5224978;28;20400;-68
2021/12/26 02:36:19;;;;;;;5.43;2.58;;;2.70;99.90;;;2.19;80.20;100188.25;5225016;28;20059;-68
2021/12/26 02:38:51;;;;;;;7.60;3.35;;;2.70;99.90;;;2.16;80.49;100178.69;5224698;28;20049;-67
2021/12/26 02:41:23;;;;;;;6.80;3.22;;;2.70;99.90;;;2.20;80.13;100174.56;5224854;28;20060;-65
2021/12/26 02:43:56;;;;;;;9.20;3.50;;;2.70;99.90;;;2.11;79.63;100179.19;5224782;28;20044;-66
2021/12/26 02:46:28;;;;;;;6.07;3.33;;;2.70;99.90;;;2.04;80.30;100184.78;5224815;28;20110;-67
2021/12/26 02:49:00;;;;;;;8.95;3.13;;;2.60;99.90;;;2.04;80.60;100177.06;5225401;28;20076;-68
2021/12/26 02:51:34;;;;;;;6.32;2.97;;;2.60;99.90;;;2.06;80.82;100175.47;5225324;28;20478;-68
2021/12/26 02:54:06;;;;;;;9.38;3.13;;;2.60;99.90;;;2.06;81.01;100181.50;5225108;28;20248;-69
2021/12/26 02:56:38;;;;;;;7.63;3.67;;;2.60;99.90;;;2.04;80.75;100184.78;5224664;28;20049;-68
2021/12/26 02:59:10;;;;;;;6.22;3.13;;;2.60;99.90;;;2.02;81.10;100170.94;5226316;28;20143;-69
2021/12/26 03:01:42;;;;;;;6.72;3.70;;;2.60;99.90;;;2.03;81.20;100176.19;5228431;28;20048;-68
2021/12/26 03:04:14;;;;;;;7.25;3.70;;;2.60;99.90;;;2.01;81.08;100174.31;5228667;28;20486;-69
2021/12/26 03:06:56;;;;;;;6.47;3.15;;;2.50;99.90;;;2.01;80.97;100174.31;5228951;28;20059;-69
2021/12/26 03:09:30;;;;;;;8.52;3.28;;;2.60;99.90;;;2.05;80.94;100184.88;5228549;28;20059;-68
2021/12/26 03:12:02;;;;;;;7.00;2.95;;;2.60;99.90;;;2.03;81.06;100183.91;5228310;28;20053;-68
2021/12/26 03:14:35;;;;;;;8.63;3.25;;;2.60;99.90;;;2.07;80.76;100177.22;5228134;28;20053;-68
2021/12/26 03:17:07;;;;;;;6.70;3.42;;;2.60;99.90;;;2.00;81.11;100169.97;5229141;28;20049;-68
2021/12/26 03:19:39;;;;;;;7.40;3.35;;;2.60;99.90;;;2.02;81.57;100168.34;5228288;28;20053;-65
2021/12/26 03:22:14;;;;;;;7.07;3.40;;;2.60;99.90;;;2.02;81.50;100173.50;5228202;28;20056;-68
2021/12/26 03:24:46;;;;;;;8.45;3.50;;;2.50;99.90;;;2.01;81.87;100171.72;5228086;28;20048;-68
2021/12/26 03:27:18;;;;;;;8.90;3.65;;;2.50;99.90;;;2.05;81.75;100171.13;5228296;28;20045;-68
2021/12/26 03:29:50;;;;;;;8.88;3.42;;;2.60;99.90;;;2.10;81.79;100167.16;5228365;28;20064;-67
2021/12/26 03:32:23;;;;;;;7.18;3.15;;;2.60;99.90;;;2.07;81.69;100166.94;5228302;28;20049;-68
2021/12/26 03:34:55;;;;;;;8.05;3.25;;;2.60;99.90;;;2.06;81.41;100168.63;5228742;28;20048;-68
2021/12/26 03:37:28;;;;;;;7.68;3.63;;;2.60;99.90;;;2.05;81.82;100164.28;5228174;28;20474;-68
2021/12/26 03:40:00;;;;;;;8.70;3.65;;;2.60;99.90;;;2.08;82.01;100158.44;5227901;28;20053;-66
2021/12/26 03:42:33;;;;;;;8.32;3.58;;;2.60;99.90;;;2.10;81.82;100167.16;5228115;28;20504;-66
2021/12/26 03:45:07;;;;;;;8.68;3.53;;;2.60;99.90;;;2.10;81.03;100167.16;5227749;28;20045;-67
2021/12/26 03:47:41;;;;;;;7.55;3.42;;;2.60;99.90;;;2.07;81.25;100162.69;5228057;28;20402;-68
2021/12/26 03:50:13;;;;;;;8.60;3.65;;;2.60;99.90;;;2.06;81.28;100168.63;5227911;28;20047;-66
2021/12/26 03:52:46;;;;;;;7.03;3.33;;;2.60;99.90;;;2.10;81.67;100168.03;5228032;28;20055;-68
2021/12/26 03:55:18;;;;;;;9.20;4.53;;;2.60;99.90;;;2.12;81.00;100156.13;5228188;28;20056;-68
2021/12/26 03:57:50;;;;;;;10.57;3.95;;;2.70;99.90;;;2.04;81.17;100153.94;5227861;28;20063;-68
2021/12/26 04:00:25;;;;;;;8.32;3.55;;;2.60;99.90;;;2.04;81.32;100152.25;5227510;28;20048;-68
2021/12/26 04:02:57;;;;;;;8.55;3.67;;;2.60;99.90;;;2.09;81.54;100153.41;5227604;28;20400;-68
2021/12/26 04:05:29;;;;;;;10.40;4.43;;;2.60;99.90;;;2.08;81.53;100150.72;5227285;28;20045;-68
2021/12/26 04:08:03;;;;;;;8.25;3.88;;;2.60;99.90;;;2.06;81.34;100142.94;5227616;28;20515;-68
2021/12/26 04:10:35;;;;;;;9.18;4.03;;;2.60;99.90;;;2.04;81.42;100146.22;5226400;28;20051;-68
2021/12/26 04:13:07;;;;;;;9.15;3.72;;;2.60;99.90;;;2.11;81.03;100138.06;5227893;28;20513;-68
2021/12/26 04:15:41;;;;;;;9.23;3.95;;;2.60;99.90;;;2.12;81.45;100139.81;5227195;28;20107;-68
2021/12/26 04:18:13;;;;;;;9.35;4.22;;;2.60;99.90;;;2.09;81.20;100137.09;5227096;28;20060;-68
2021/12/26 04:20:46;;;;;;;8.50;3.85;;;2.60;99.90;;;2.05;81.17;100145.41;5227379;28;20053;-68
2021/12/26 04:23:19;;;;;;;11.07;4.43;;;2.60;99.90;;;2.00;81.64;100144.25;5227320;28;20053;-68
2021/12/26 04:25:51;;;;;;;9.13;3.85;;;2.60;99.90;;;1.98;81.88;100148.44;5226948;28;20055;-68
2021/12/26 04:28:23;;;;;;;8.93;3.92;;;2.60;99.90;;;1.97;81.93;100139.84;5226937;28;20044;-66
2021/12/26 04:30:55;;;;;;;7.80;3.70;;;2.60;99.90;;;1.92;81.43;100136.09;5227359;28;20044;-65
2021/12/26 04:33:27;;;;;;;8.55;3.60;;;2.50;99.90;;;1.94;81.74;100134.50;5227036;28;20053;-66
2021/12/26 04:35:59;;;;;;;12.82;4.18;;;2.50;99.90;;;2.01;81.72;100140.88;5226650;28;20045;-66
2021/12/26 04:38:33;;;;;;;9.13;3.88;;;2.50;99.90;;;2.03;81.91;100147.91;5227134;28;20059;-68
2021/12/26 04:41:05;;;;;;;8.77;4.00;;;2.50;99.90;;;2.02;81.75;100133.28;5226975;28;20478;-68
2021/12/26 04:43:37;;;;;;;10.93;4.25;;;2.60;99.90;;;2.05;81.81;100124.84;5227000;28;20049;-68
2021/12/26 04:46:10;;;;;;;9.43;4.32;;;2.60;99.90;;;2.11;81.68;100125.22;5226994;28;20076;-68
2021/12/26 04:48:45;;;;;;;10.77;5.15;;;2.60;99.90;;;2.09;81.55;100122.56;5226938;28;20055;-68
2021/12/26 04:51:17;;;;;;;9.77;4.68;;;2.60;99.90;;;2.07;81.45;100125.81;5227067;28;20095;-68
2021/12/26 04:53:51;;;;;;;10.75;4.28;;;2.60;99.90;;;2.05;82.18;100127.41;5226380;28;20056;-68
2021/12/26 04:56:23;;;;;;;11.88;4.47;;;2.60;99.90;;;2.05;82.38;100130.00;5226329;28;20056;-68
2021/12/26 04:58:55;;;;;;;9.93;4.40;;;2.60;99.90;;;2.06;82.77;100124.94;5226365;28;20049;-68
2021/12/26 05:01:27;;;;;;;11.45;4.43;;;2.60;99.90;;;2.10;82.72;100131.16;5226483;28;20387;-67
2021/12/26 05:03:59;;;;;;;10.75;4.03;;;2.60;99.90;;;2.08;82.63;100113.03;5226326;28;20056;-68
2021/12/26 05:06:31;;;;;;;9.73;3.83;;;2.60;99.90;;;2.06;82.96;100109.50;5226338;28;20512;-67
2021/12/26 05:09:05;;;;;;;9.43;3.95;;;2.60;99.90;;;2.02;82.94;100102.44;5226131;28;20056;-66
2021/12/26 05:11:37;;;;;;;7.78;4.03;;;2.60;99.90;;;2.06;82.52;100126.63;5226553;28;20059;-70
2021/12/26 05:14:09;;;;;;;8.07;3.35;;;2.60;99.90;;;2.11;82.49;100138.06;5226163;28;20540;-68
2021/12/26 05:16:41;;;;;;;10.05;4.28;;;2.60;99.90;;;2.14;82.56;100122.78;5226306;28;20224;-68
2021/12/26 05:19:13;;;;;;;12.73;4.70;;;2.60;99.90;;;2.08;82.32;100140.44;5225766;28;20056;-68
2021/12/26 05:21:45;;;;;;;9.30;3.70;;;2.60;99.90;;;2.14;82.47;100141.69;5225503;28;20044;-68
2021/12/26 05:24:18;;;;;;;12.02;4.65;;;2.60;99.90;;;2.11;82.23;100132.91;5226179;28;20500;-68
2021/12/26 05:26:51;;;;;;;11.18;4.40;;;2.60;99.90;;;2.24;81.99;100130.25;5226125;28;20045;-68
2021/12/26 05:29:23;;;;;;;9.52;4.47;;;2.60;99.90;;;2.22;81.49;100137.00;5226554;28;20055;-68
2021/12/26 05:31:55;;;;;;;10.15;4.10;;;2.70;99.90;;;2.17;81.71;100138.41;5226354;28;20485;-68
2021/12/26 05:34:27;;;;;;;12.30;4.65;;;2.60;99.90;;;2.15;81.84;100140.00;5225658;28;20045;-68
2021/12/26 05:36:59;;;;;;;11.27;4.75;;;2.60;99.90;;;2.17;82.03;100138.41;5226003;28;20053;-68
2021/12/26 05:39:32;;;;;;;11.07;4.13;;;2.70;99.90;;;2.12;81.81;100134.69;5225550;28;20049;-67
2021/12/26 05:42:05;;;;;;;11.20;4.75;;;2.60;99.90;;;2.09;82.22;100137.09;5225866;28;20051;-68
2021/12/26 05:44:37;;;;;;;10.32;4.30;;;2.60;99.90;;;2.10;82.67;100119.19;5225546;28;20405;-66
2021/12/26 05:47:09;;;;;;;10.07;4.13;;;2.60;99.90;;;2.16;82.38;100123.78;5226000;28;20049;-66
2021/12/26 05:49:41;;;;;;;10.85;5.10;;;2.70;99.90;;;2.12;81.89;100134.69;5225961;28;20387;-68
2021/12/26 05:52:14;;;;;;;12.63;4.68;;;2.70;99.90;;;2.09;82.15;100119.09;5225670;28;20045;-67
2021/12/26 05:54:48;;;;;;;11.75;4.95;;;2.60;99.90;;;2.03;82.36;100118.75;5225467;28;20413;-67
2021/12/26 05:57:20;;;;;;;11.57;4.22;;;2.60;99.90;;;1.98;82.64;100118.47;5225648;28;20051;-68
2021/12/26 05:59:52;;;;;;;12.60;5.22;;;2.60;99.90;;;2.01;82.70;100122.88;5225605;28;20409;-68
2021/12/26 06:02:24;;;;;;;13.85;4.57;;;2.60;99.90;;;2.04;82.61;100125.66;5225260;28;20056;-68
2021/12/26 06:04:56;;;;;;;9.82;4.35;;;2.50;99.90;;;2.10;82.59;100115.72;5225037;28;20048;-68
2021/12/26 06:07:28;;;;;;;10.70;5.03;;;2.60;99.90;;;2.06;82.69;100113.75;5225536;28;20051;-68
2021/12/26 06:10:02;;;;;;;11.32;4.40;;;2.60;99.90;;;2.05;83.02;100123.16;5225212;28;20048;-68
2021/12/26 06:12:34;;;;;;;14.48;4.70;;;2.60;99.90;;;2.06;82.77;100116.34;5225527;28;20055;-68
2021/12/26 06:15:07;;;;;;;11.80;4.57;;;2.60;99.90;;;2.05;82.69;100114.56;5225435;28;20049;-68
2021/12/26 06:17:39;;;;;;;7.80;3.75;;;2.60;99.90;;;2.09;82.85;100119.09;5273482;22;20038;-75
2021/12/26 06:20:29;;;;;;;11.23;4.95;;;2.60;99.90;;;2.12;83.16;100119.25;5203163;28;20046;-75
2021/12/26 06:23:01;;;;;;;11.75;4.72;;;2.60;99.90;;;2.08;82.72;100112.16;5204277;28;20454;-75
2021/12/26 06:25:35;;;;;;;13.85;5.25;;;2.60;99.90;;;2.13;82.91;100110.75;5204473;28;20053;-75
2021/12/26 06:28:07;;;;;;;12.65;4.90;;;2.60;99.90;;;2.11;82.61;100115.81;5204454;28;20055;-75
2021/12/26 06:30:39;;;;;;;15.38;7.50;;;2.60;99.90;;;2.11;82.73;100108.09;5204715;28;20045;-75
2021/12/26 06:33:11;;;;;;;13.10;5.60;;;2.60;99.90;;;2.09;82.70;100106.25;5204012;28;20052;-76
2021/12/26 06:35:43;;;;;;;12.35;5.10;;;2.60;99.90;;;2.08;82.97;100117.28;5208149;28;20045;-75
2021/12/26 06:38:15;;;;;;;14.05;5.47;;;2.60;99.90;;;2.09;83.28;100109.69;5208501;28;20163;-76
2021/12/26 06:40:48;;;;;;;16.13;6.03;;;2.60;99.90;;;2.10;82.97;100105.44;5208430;28;20045;-75
2021/12/26 06:43:20;;;;;;;18.20;7.32;;;2.60;99.90;;;2.07;83.23;100110.38;5208212;28;20056;-75
2021/12/26 06:45:53;;;;;;;12.73;5.70;;;2.60;99.90;;;2.08;82.92;100102.75;5207688;28;20051;-75
2021/12/26 06:48:25;;;;;;;13.88;4.97;;;2.60;99.90;;;2.09;82.81;100108.81;5208352;28;20410;-75
2021/12/26 06:50:57;;;;;;;15.73;5.75;;;2.60;99.90;;;2.07;82.88;100105.25;5208213;28;20046;-76
2021/12/26 06:53:29;;;;;;;12.02;5.30;;;2.60;99.90;;;2.06;82.99;100104.38;5208141;28;20056;-75
2021/12/26 06:56:04;;;;;;;9.93;4.50;;;2.60;99.90;;;2.12;83.60;100111.53;5207696;28;20056;-75
2021/12/26 06:58:36;;;;;;;14.93;5.47;;;2.60;99.90;;;2.16;83.50;100116.06;5208179;28;20119;-73
2021/12/26 07:01:10;;;;;;;14.75;5.47;;;2.60;99.90;;;2.14;83.14;100107.38;5208297;28;20405;-74
2021/12/26 07:03:42;;;;;;;13.10;5.28;;;2.70;99.90;;;2.21;83.03;100109.50;5208025;28;20049;-74
2021/12/26 07:06:14;;;;;;;13.45;5.40;;;2.70;99.90;;;2.20;82.98;100105.16;5208056;28;20467;-74
2021/12/26 07:08:46;;;;;;;11.90;5.00;;;2.70;99.90;;;2.18;83.05;100122.19;5208231;28;20486;-74
2021/12/26 07:11:19;;;;;;;12.00;4.88;;;2.70;99.90;;;2.20;83.17;100110.28;5208254;28;20482;-74
2021/12/26 07:13:52;;;;;;;11.60;5.13;;;2.70;99.90;;;2.20;83.32;100115.44;5207901;28;20407;-74
2021/12/26 07:16:25;;;;;;;11.38;4.43;;;2.70;99.90;;;2.20;83.38;100119.69;5208056;28;20045;-73
2021/12/26 07:18:57;;;;;;;14.05;4.95;;;2.70;99.90;;;2.27;83.16;100124.38;5208166;28;20056;-74
2021/12/26 07:21:29;;;;;;;11.88;5.18;;;2.70;99.90;;;2.29;83.14;100130.53;5207961;28;20049;-74
2021/12/26 07:24:01;;;;;;;12.50;4.97;;;2.80;99.90;;;2.26;83.05;100127.75;5207700;28;20049;-74
2021/12/26 07:26:34;;;;;;;13.02;4.22;;;2.70;99.90;;;2.28;83.46;100131.28;5207835;28;20052;-74
2021/12/26 07:29:06;;;;;;;12.93;5.25;;;2.70;99.90;;;2.34;83.07;100135.09;5207533;28;20060;-74
2021/12/26 07:31:38;;;;;;;13.73;4.60;;;2.80;99.90;;;2.30;83.02;100135.75;5207281;28;20056;-73
2021/12/26 07:34:10;;;;;;;12.02;5.18;;;2.80;99.90;;;2.32;83.02;100135.81;5207306;28;20289;-73
2021/12/26 07:36:42;;;;;;;12.68;4.70;;;2.80;99.90;;;2.34;82.71;100132.53;5207929;28;20045;-73
2021/12/26 07:39:14;;;;;;;13.88;5.65;;;2.80;99.90;;;2.32;83.44;100141.84;5207272;28;20148;-73
2021/12/26 07:41:48;;;;;;;15.18;5.55;;;2.80;99.90;;;2.36;83.23;100133.53;5207507;28;20050;-73
2021/12/26 07:44:20;;;;;;;14.65;5.55;;;2.80;99.90;;;2.33;83.32;100125.63;5206578;28;20045;-74
2021/12/26 07:46:52;;;;;;;13.38;5.25;;;2.80;99.90;;;2.32;83.18;100123.84;5207409;28;20055;-74
2021/12/26 07:49:25;;;;;;;11.57;4.55;;;2.80;99.90;;;2.33;83.17;100119.59;5207311;28;20049;-74
2021/12/26 07:51:58;;;;;;;11.02;4.75;;;2.80;99.90;;;2.32;83.63;100129.00;5207120;28;20041;-74
2021/12/26 07:54:30;;;;;;;11.27;4.38;;;2.90;99.90;;;2.38;83.56;100128.47;5207155;28;20099;-74
2021/12/26 07:57:06;;;;;;;12.25;4.45;;;2.90;99.90;;;2.38;83.08;100133.59;5207254;28;20475;-74
2021/12/26 07:59:38;;;;;;;11.75;4.70;;;2.80;99.90;;;2.38;83.60;100129.34;5206910;28;20140;-74
2021/12/26 08:02:18;;;;;;;13.00;5.57;;;2.90;99.90;;;2.42;83.33;100125.28;5206988;28;20137;-74
2021/12/26 08:04:50;;;;;;;11.48;4.65;;;2.90;99.90;;;2.43;83.24;100132.19;5207137;28;20059;-74
2021/12/26 08:07:22;;;;;;;12.93;4.97;;;2.90;99.90;;;2.49;83.25;100131.66;5206767;28;20049;-74
2021/12/26 08:09:54;;;;;;;13.07;5.50;;;2.90;99.90;;;2.42;82.58;100136.44;5206797;28;20049;-74
2021/12/26 08:12:28;;;;;;;10.98;5.15;;;2.90;99.90;;;2.39;82.89;100146.53;5207346;28;20470;-74
2021/12/26 08:15:01;;;;;;;14.55;5.05;;;2.90;99.90;;;2.43;82.94;100142.47;5206550;28;20053;-74
2021/12/26 08:17:35;;;;;;;10.27;4.00;;;2.90;99.90;;;2.43;82.93;100143.34;5207036;28;20049;-74
2021/12/26 08:20:09;;;;;;;12.75;6.22;;;2.90;99.90;;;2.45;83.20;100141.75;5206746;28;20548;-74
2021/12/26 08:22:41;;;;;;;12.10;4.82;;;2.90;99.90;;;2.53;83.03;100131.88;5206715;28;20065;-74
2021/12/26 08:25:13;;;;;;;12.07;5.28;;;3.00;99.90;;;2.54;82.76;100141.38;5206528;28;20050;-74
2021/12/26 08:27:47;;;;;;;12.07;4.68;;;3.00;99.90;;;2.61;82.76;100129.75;5206578;28;20049;-74
2021/12/26 08:30:20;;;;;;;12.02;4.85;;;3.00;99.90;;;2.63;82.35;100135.88;5206793;28;20049;-74
2021/12/26 08:32:54;;;;;;;12.70;5.20;;;3.00;99.90;;;2.59;82.40;100123.63;5206497;28;20049;-73
2021/12/26 08:35:26;;;;;;;11.48;5.30;;;3.00;99.90;;;2.64;82.43;100123.09;5206030;28;20049;-74
2021/12/26 08:37:58;;;;;;;13.13;4.60;;;3.00;99.90;;;2.67;82.27;100124.94;5206360;28;20052;-73
2021/12/26 08:40:31;;;;;;;12.23;5.05;;;3.00;99.90;;;2.62;82.46;100124.69;5206360;28;20053;-74
2021/12/26 08:43:04;;;;;;;13.35;4.68;;;3.00;99.90;;;2.61;82.49;100127.19;5206438;28;20052;-74
2021/12/26 08:45:37;;;;;;;10.25;4.32;;;3.00;99.90;;;2.61;82.45;100124.63;5206219;28;20521;-74
2021/12/26 08:48:10;;;;;;;10.88;4.75;;;3.10;99.90;;;2.63;82.17;100125.59;5206234;28;20461;-74
2021/12/26 08:50:42;;;;;;;12.93;4.93;;;3.10;99.90;;;2.61;82.70;100125.50;5206203;28;20055;-73
2021/12/26 08:53:15;;;;;;;12.48;5.20;;;3.10;99.90;;;2.66;82.52;100130.88;5206173;28;20049;-73
2021/12/26 08:55:47;;;;;;;13.63;5.07;;;3.10;99.90;;;2.63;83.09;100146.16;5205647;28;20398;-74
2021/12/26 08:58:21;;;;;;;11.32;4.32;;;3.10;99.90;;;2.62;83.06;100135.00;5205698;28;20402;-73
2021/12/26 09:00:55;;;;;;;10.70;4.75;;;3.10;99.90;;;2.60;83.99;100151.13;5205964;28;20405;-73
2021/12/26 09:03:27;;;;;;;13.93;5.07;;;3.10;99.90;;;2.58;84.41;100140.75;5205717;28;20391;-73
2021/12/26 09:05:59;;;;;;;13.18;5.53;;;3.10;99.90;;;2.64;84.60;100138.53;5205353;28;20479;-72
2021/12/26 09:08:31;;;;;;;15.88;5.55;;;3.10;99.90;;;2.64;84.90;100150.50;5205758;28;20075;-72
2021/12/26 09:11:03;;;;;;;13.90;4.57;;;3.10;99.90;;;2.62;85.38;100142.72;5205502;28;20045;-72
2021/12/26 09:13:37;;;;;;;15.30;5.72;;;3.10;99.90;;;2.57;85.99;100150.97;5205189;28;20050;-72
2021/12/26 09:16:09;;;;;;;11.70;4.75;;;3.10;99.90;;;2.57;86.29;100140.69;5205668;28;20060;-72
2021/12/26 09:18:41;;;;;;;11.20;5.13;;;3.10;99.90;;;2.54;86.02;100146.50;5205649;28;20053;-72
2021/12/26 09:21:14;;;;;;;12.10;4.63;;;3.10;99.90;;;2.61;86.29;100142.63;5205642;28;20045;-74
2021/12/26 09:23:46;;;;;;;11.50;4.75;;;3.10;99.90;;;2.69;86.36;100146.50;5205204;28;20409;-72
2021/12/26 09:26:18;;;;;;;12.00;5.05;;;3.10;99.90;;;2.74;86.40;100152.81;5205368;28;20475;-73
2021/12/26 09:28:51;;;;;;;12.88;4.93;;;3.20;99.90;;;2.73;85.68;100154.47;5205538;28;20045;-72
2021/12/26 09:31:24;;;;;;;13.55;5.60;;;3.20;99.90;;;2.78;85.47;100152.16;5205686;28;20056;-72
2021/12/26 09:33:56;;;;;;;12.40;4.43;;;3.20;99.90;;;2.85;85.64;100155.94;5204709;28;20049;-73
2021/12/26 09:36:28;;;;;;;12.68;4.95;;;3.30;99.90;;;2.85;85.10;100153.38;5204908;28;20135;-73
2021/12/26 09:39:00;;;;;;;11.32;4.93;;;3.30;99.90;;;2.87;84.60;100162.97;5205329;28;20053;-72
2021/12/26 09:41:32;;;;;;;11.10;4.53;;;3.30;99.90;;;2.85;84.58;100156.84;5205388;28;20490;-72
2021/12/26 09:44:07;;;;;;;10.32;4.40;;;3.30;99.90;;;2.82;84.93;100154.09;5193366;28;20049;-72
2021/12/26 09:46:39;;;;;;;14.82;5.90;;;3.30;99.90;;;2.89;85.30;100151.06;5165133;28;20427;-73
2021/12/26 09:49:11;;;;;;;13.70;5.05;;;3.30;99.90;;;2.94;85.08;100148.75;5164373;28;20446;-73
2021/12/26 09:51:43;;;;;;;12.45;5.45;;;3.40;99.90;;;2.90;85.50;100155.41;5164634;28;20411;-72
2021/12/26 09:54:15;;;;;;;15.65;5.60;;;3.40;99.90;;;2.81;86.09;100144.63;5164260;28;20443;-72
2021/12/26 09:56:47;;;;;;;15.07;5.90;;;3.40;99.90;;;2.73;87.24;100149.31;5164506;28;20073;-73
2021/12/26 09:59:24;;;;;;;12.30;4.78;;;3.30;99.90;;;2.69;88.09;100152.53;5164502;28;20492;-72
2021/12/26 10:01:57;;;;;;;15.63;5.25;;;3.30;99.90;;;2.72;89.16;100146.66;5164577;28;20050;-72
2021/12/26 10:04:32;;;;;;;14.50;6.82;;;3.20;99.90;;;2.68;90.38;100142.16;5163607;28;20050;-72
2021/12/26 10:07:09;;;;;;;12.30;5.93;;;3.20;99.90;;;2.63;91.84;100143.59;5164190;28;20093;-72
2021/12/26 10:09:45;;;;;;;16.23;6.15;;;3.20;99.90;;;2.61;92.11;100129.75;5164250;28;20145;-72
2021/12/26 10:12:20;;;;;;;12.48;5.55;;;3.20;99.90;;;2.57;92.82;100127.81;5177986;28;20053;-72
2021/12/26 10:14:55;;;;;;;14.88;5.30;;;3.10;99.90;;;2.53;93.15;100124.16;5183846;28;20054;-72
2021/12/26 10:17:28;;;;;;;11.68;5.00;;;3.10;99.90;;;2.49;93.99;100131.66;5184366;28;20072;-72
2021/12/26 10:20:08;;;;;;;13.93;5.53;;;3.00;99.90;;;2.51;93.86;100124.88;5184260;28;20046;-72
2021/12/26 10:22:40;;;;;;;15.95;6.05;;;3.00;99.90;;;2.52;93.41;100126.66;5184956;28;20054;-72
2021/12/26 10:25:15;;;;;;;19.65;7.55;;;3.00;99.90;;;2.54;93.82;100109.63;5183794;28;20056;-72
2021/12/26 10:27:48;;;;;;;21.80;8.50;;;3.00;99.90;;;2.57;93.47;100107.22;5184477;28;20049;-72
2021/12/26 10:30:24;;;;;;;18.27;7.85;;;3.00;99.90;;;2.61;93.84;100104.91;5184317;28;20046;-72
2021/12/26 10:32:59;;;;;;;13.30;5.10;;;3.10;99.90;;;2.67;93.30;100097.53;5184023;28;20062;-72
2021/12/26 10:35:31;;;;;;;;;;;3.10;99.90;;;2.67;92.76;100096.63;5184602;28;20399;-72
2021/12/26 10:38:03;;;;;;;16.33;6.32;;;3.20;99.90;;;2.72;92.66;100090.03;5184318;28;19921;-72
2021/12/26 10:40:35;;;;;;;12.52;5.30;;;3.20;99.90;;;2.75;92.17;100085.09;5184308;28;20054;-72
2021/12/26 10:43:12;;;;;;;11.50;4.90;;;3.20;99.90;;;2.70;92.13;100082.25;5183913;28;20490;-72
2021/12/26 10:45:45;;;;;;;12.07;5.25;;;3.20;99.90;;;2.72;92.17;100080.63;5183834;28;20060;-72
2021/12/26 10:48:25;;;;;;;16.60;7.50;;;3.20;99.90;;;2.79;91.65;100079.28;5184321;28;20046;-72
2021/12/26 10:50:57;;;;;;;18.30;7.95;;;3.20;99.90;;;2.85;91.71;100071.88;5184400;28;20057;-72